sensor_id;sensor_type;location;lat;lon;timestamp;P1;durP1;ratioP1;P2;durP2;ratioP2
2257;SDS011;1136;51.574;7.706;2022-11-20T00:01:21;27.80;;;19.57;;
2257;SDS011;1136;51.574;7.706;2022-11-20T00:03:50;30.50;;;21.10;;
2257;SDS011;1136;51.574;7.706;2022-11-20T00:06:18;28.47;;;22.13;;
2257;SDS011;1136;51.574;7.706;2022-11-20T00:08:45;27.47;;;20.80;;
2257;SDS011;1136;51.574;7.706;2022-11-20T00:11:14;35.27;;;21.97;;
2257;SDS011;1136;51.574;7.706;2022-11-20T00:13:46;29.37;;;20.07;;
2257;SDS011;1136;51.574;7.706;2022-11-20T00:16:15;30.47;;;21.40;;
2257;SDS011;1136;51.574;7.706;2022-11-20T00:18:43;25.87;;;20.90;;
2257;SDS011;1136;51.574;7.706;2022-11-20T00:21:11;28.90;;;21.70;;
2257;SDS011;1136;51.574;7.706;2022-11-20T00:23:39;29.13;;;21.00;;
2257;SDS011;1136;51.574;7.706;2022-11-20T00:26:07;27.63;;;21.43;;
2257;SDS011;1136;51.574;7.706;2022-11-20T00:28:36;30.50;;;22.23;;
2257;SDS011;1136;51.574;7.706;2022-11-20T00:31:06;28.97;;;20.70;;
2257;SDS011;1136;51.574;7.706;2022-11-20T00:33:34;25.17;;;19.60;;
2257;SDS011;1136;51.574;7.706;2022-11-20T00:36:02;29.43;;;19.63;;
2257;SDS011;1136;51.574;7.706;2022-11-20T00:38:35;29.93;;;18.77;;
2257;SDS011;1136;51.574;7.706;2022-11-20T00:41:06;24.60;;;17.97;;
2257;SDS011;1136;51.574;7.706;2022-11-20T00:43:35;26.27;;;19.53;;
2257;SDS011;1136;51.574;7.706;2022-11-20T00:46:13;35.20;;;20.63;;
2257;SDS011;1136;51.574;7.706;2022-11-20T00:48:41;30.43;;;20.27;;
2257;SDS011;1136;51.574;7.706;2022-11-20T00:51:07;27.23;;;18.60;;
2257;SDS011;1136;51.574;7.706;2022-11-20T00:53:34;27.20;;;19.40;;
2257;SDS011;1136;51.574;7.706;2022-11-20T00:56:02;26.77;;;19.30;;
2257;SDS011;1136;51.574;7.706;2022-11-20T00:58:36;23.13;;;16.50;;
2257;SDS011;1136;51.574;7.706;2022-11-20T01:01:08;25.83;;;18.60;;
2257;SDS011;1136;51.574;7.706;2022-11-20T01:03:37;25.30;;;18.00;;
2257;SDS011;1136;51.574;7.706;2022-11-20T01:06:06;27.30;;;19.00;;
2257;SDS011;1136;51.574;7.706;2022-11-20T01:08:35;22.97;;;18.67;;
2257;SDS011;1136;51.574;7.706;2022-11-20T01:11:04;25.07;;;19.00;;
2257;SDS011;1136;51.574;7.706;2022-11-20T01:13:32;26.87;;;19.50;;
2257;SDS011;1136;51.574;7.706;2022-11-20T01:16:11;25.30;;;19.17;;
2257;SDS011;1136;51.574;7.706;2022-11-20T01:18:40;24.97;;;18.67;;
2257;SDS011;1136;51.574;7.706;2022-11-20T01:21:15;28.90;;;19.50;;
2257;SDS011;1136;51.574;7.706;2022-11-20T01:23:43;26.27;;;18.57;;
2257;SDS011;1136;51.574;7.706;2022-11-20T01:26:24;21.93;;;17.33;;
2257;SDS011;1136;51.574;7.706;2022-11-20T01:28:53;23.30;;;17.93;;
2257;SDS011;1136;51.574;7.706;2022-11-20T01:31:21;22.40;;;17.60;;
2257;SDS011;1136;51.574;7.706;2022-11-20T01:33:50;22.80;;;17.70;;
2257;SDS011;1136;51.574;7.706;2022-11-20T01:36:22;25.13;;;19.20;;
2257;SDS011;1136;51.574;7.706;2022-11-20T01:38:53;29.80;;;22.00;;
2257;SDS011;1136;51.574;7.706;2022-11-20T01:41:20;23.03;;;17.87;;
2257;SDS011;1136;51.574;7.706;2022-11-20T01:44:07;24.90;;;18.50;;
2257;SDS011;1136;51.574;7.706;2022-11-20T01:46:35;23.70;;;17.10;;
2257;SDS011;1136;51.574;7.706;2022-11-20T01:49:17;25.27;;;19.50;;
2257;SDS011;1136;51.574;7.706;2022-11-20T01:51:53;29.77;;;18.27;;
2257;SDS011;1136;51.574;7.706;2022-11-20T01:54:25;23.80;;;18.30;;
2257;SDS011;1136;51.574;7.706;2022-11-20T01:56:58;24.03;;;16.93;;
2257;SDS011;1136;51.574;7.706;2022-11-20T01:59:25;26.80;;;18.20;;
2257;SDS011;1136;51.574;7.706;2022-11-20T02:01:52;27.30;;;18.10;;
2257;SDS011;1136;51.574;7.706;2022-11-20T02:04:19;29.30;;;17.90;;
2257;SDS011;1136;51.574;7.706;2022-11-20T02:06:51;25.67;;;18.97;;
2257;SDS011;1136;51.574;7.706;2022-11-20T02:09:20;27.80;;;18.60;;
2257;SDS011;1136;51.574;7.706;2022-11-20T02:11:46;27.63;;;18.70;;
2257;SDS011;1136;51.574;7.706;2022-11-20T02:14:13;26.43;;;19.47;;
2257;SDS011;1136;51.574;7.706;2022-11-20T02:16:43;29.10;;;19.90;;
2257;SDS011;1136;51.574;7.706;2022-11-20T02:19:22;25.77;;;18.80;;
2257;SDS011;1136;51.574;7.706;2022-11-20T02:24:36;25.73;;;17.57;;
2257;SDS011;1136;51.574;7.706;2022-11-20T02:27:04;25.90;;;18.37;;
2257;SDS011;1136;51.574;7.706;2022-11-20T02:32:25;23.93;;;16.60;;
2257;SDS011;1136;51.574;7.706;2022-11-20T02:34:52;19.43;;;16.30;;
2257;SDS011;1136;51.574;7.706;2022-11-20T02:37:19;20.97;;;16.20;;
2257;SDS011;1136;51.574;7.706;2022-11-20T02:39:46;25.73;;;18.40;;
2257;SDS011;1136;51.574;7.706;2022-11-20T02:42:14;21.37;;;16.40;;
2257;SDS011;1136;51.574;7.706;2022-11-20T02:44:41;22.20;;;17.00;;
2257;SDS011;1136;51.574;7.706;2022-11-20T02:47:07;22.70;;;16.17;;
2257;SDS011;1136;51.574;7.706;2022-11-20T02:49:34;22.33;;;16.50;;
2257;SDS011;1136;51.574;7.706;2022-11-20T02:52:01;20.80;;;15.83;;
2257;SDS011;1136;51.574;7.706;2022-11-20T02:54:28;23.87;;;17.77;;
2257;SDS011;1136;51.574;7.706;2022-11-20T02:56:54;23.97;;;17.93;;
2257;SDS011;1136;51.574;7.706;2022-11-20T02:59:21;26.47;;;17.20;;
2257;SDS011;1136;51.574;7.706;2022-11-20T03:01:48;23.10;;;17.77;;
2257;SDS011;1136;51.574;7.706;2022-11-20T03:04:15;21.10;;;15.87;;
2257;SDS011;1136;51.574;7.706;2022-11-20T03:06:41;23.03;;;17.90;;
2257;SDS011;1136;51.574;7.706;2022-11-20T03:09:08;24.80;;;17.97;;
2257;SDS011;1136;51.574;7.706;2022-11-20T03:11:35;24.10;;;17.60;;
2257;SDS011;1136;51.574;7.706;2022-11-20T03:14:03;19.83;;;15.90;;
2257;SDS011;1136;51.574;7.706;2022-11-20T03:16:30;20.00;;;16.30;;
2257;SDS011;1136;51.574;7.706;2022-11-20T03:18:57;22.73;;;16.17;;
2257;SDS011;1136;51.574;7.706;2022-11-20T03:21:24;24.47;;;17.70;;
2257;SDS011;1136;51.574;7.706;2022-11-20T03:23:51;24.60;;;16.93;;
2257;SDS011;1136;51.574;7.706;2022-11-20T03:26:21;25.53;;;17.10;;
2257;SDS011;1136;51.574;7.706;2022-11-20T03:28:50;23.77;;;16.90;;
2257;SDS011;1136;51.574;7.706;2022-11-20T03:31:19;21.30;;;16.37;;
2257;SDS011;1136;51.574;7.706;2022-11-20T03:33:47;19.53;;;16.10;;
2257;SDS011;1136;51.574;7.706;2022-11-20T03:36:14;24.17;;;17.83;;
2257;SDS011;1136;51.574;7.706;2022-11-20T03:38:42;24.90;;;16.90;;
2257;SDS011;1136;51.574;7.706;2022-11-20T03:41:12;25.63;;;18.23;;
2257;SDS011;1136;51.574;7.706;2022-11-20T03:43:49;21.30;;;16.70;;
2257;SDS011;1136;51.574;7.706;2022-11-20T03:46:16;22.80;;;17.20;;
2257;SDS011;1136;51.574;7.706;2022-11-20T03:48:43;20.10;;;16.17;;
2257;SDS011;1136;51.574;7.706;2022-11-20T03:53:47;20.93;;;15.47;;
2257;SDS011;1136;51.574;7.706;2022-11-20T03:56:16;19.73;;;16.67;;
2257;SDS011;1136;51.574;7.706;2022-11-20T03:58:44;24.27;;;16.77;;
2257;SDS011;1136;51.574;7.706;2022-11-20T04:03:38;27.70;;;17.37;;
2257;SDS011;1136;51.574;7.706;2022-11-20T04:06:07;18.17;;;15.20;;
2257;SDS011;1136;51.574;7.706;2022-11-20T04:08:33;21.77;;;17.97;;
2257;SDS011;1136;51.574;7.706;2022-11-20T04:13:39;24.13;;;17.13;;
2257;SDS011;1136;51.574;7.706;2022-11-20T04:16:07;20.43;;;15.97;;
2257;SDS011;1136;51.574;7.706;2022-11-20T04:18:34;26.30;;;17.80;;
2257;SDS011;1136;51.574;7.706;2022-11-20T04:21:01;23.27;;;16.60;;
2257;SDS011;1136;51.574;7.706;2022-11-20T04:23:28;24.30;;;16.20;;
2257;SDS011;1136;51.574;7.706;2022-11-20T04:26:00;19.60;;;15.67;;
2257;SDS011;1136;51.574;7.706;2022-11-20T04:28:30;21.30;;;15.27;;
2257;SDS011;1136;51.574;7.706;2022-11-20T04:31:04;22.63;;;16.13;;
2257;SDS011;1136;51.574;7.706;2022-11-20T04:33:32;22.53;;;17.13;;
2257;SDS011;1136;51.574;7.706;2022-11-20T04:36:00;22.90;;;17.00;;
2257;SDS011;1136;51.574;7.706;2022-11-20T04:38:28;22.90;;;18.73;;
2257;SDS011;1136;51.574;7.706;2022-11-20T04:40:58;21.37;;;16.70;;
2257;SDS011;1136;51.574;7.706;2022-11-20T04:43:26;30.90;;;24.33;;
2257;SDS011;1136;51.574;7.706;2022-11-20T04:45:53;25.17;;;20.90;;
2257;SDS011;1136;51.574;7.706;2022-11-20T04:48:20;26.53;;;20.30;;
2257;SDS011;1136;51.574;7.706;2022-11-20T04:50:47;28.73;;;23.77;;
2257;SDS011;1136;51.574;7.706;2022-11-20T04:53:13;23.70;;;18.90;;
2257;SDS011;1136;51.574;7.706;2022-11-20T04:55:40;18.60;;;16.60;;
2257;SDS011;1136;51.574;7.706;2022-11-20T04:58:07;21.83;;;16.63;;
2257;SDS011;1136;51.574;7.706;2022-11-20T05:00:34;28.40;;;19.67;;
2257;SDS011;1136;51.574;7.706;2022-11-20T05:03:01;21.10;;;16.93;;
2257;SDS011;1136;51.574;7.706;2022-11-20T05:05:27;20.43;;;15.80;;
2257;SDS011;1136;51.574;7.706;2022-11-20T05:07:55;20.73;;;15.17;;
2257;SDS011;1136;51.574;7.706;2022-11-20T05:10:24;25.30;;;17.13;;
2257;SDS011;1136;51.574;7.706;2022-11-20T05:12:51;20.90;;;16.37;;
2257;SDS011;1136;51.574;7.706;2022-11-20T05:15:18;19.50;;;16.00;;
2257;SDS011;1136;51.574;7.706;2022-11-20T05:17:48;23.53;;;16.40;;
2257;SDS011;1136;51.574;7.706;2022-11-20T05:20:15;25.93;;;17.60;;
2257;SDS011;1136;51.574;7.706;2022-11-20T05:22:42;19.63;;;15.13;;
2257;SDS011;1136;51.574;7.706;2022-11-20T05:25:09;18.50;;;15.37;;
2257;SDS011;1136;51.574;7.706;2022-11-20T05:27:36;23.67;;;16.00;;
2257;SDS011;1136;51.574;7.706;2022-11-20T05:30:03;18.83;;;16.07;;
2257;SDS011;1136;51.574;7.706;2022-11-20T05:32:30;20.10;;;16.93;;
2257;SDS011;1136;51.574;7.706;2022-11-20T05:34:57;25.07;;;17.50;;
2257;SDS011;1136;51.574;7.706;2022-11-20T05:37:23;19.23;;;14.77;;
2257;SDS011;1136;51.574;7.706;2022-11-20T05:39:50;19.53;;;15.87;;
2257;SDS011;1136;51.574;7.706;2022-11-20T05:42:17;19.20;;;16.07;;
2257;SDS011;1136;51.574;7.706;2022-11-20T05:44:59;23.63;;;17.07;;
2257;SDS011;1136;51.574;7.706;2022-11-20T05:47:27;23.63;;;15.57;;
2257;SDS011;1136;51.574;7.706;2022-11-20T05:49:54;19.60;;;14.97;;
2257;SDS011;1136;51.574;7.706;2022-11-20T05:52:20;18.90;;;14.50;;
2257;SDS011;1136;51.574;7.706;2022-11-20T05:54:47;22.10;;;15.00;;
2257;SDS011;1136;51.574;7.706;2022-11-20T05:57:14;18.00;;;15.23;;
2257;SDS011;1136;51.574;7.706;2022-11-20T05:59:40;21.10;;;16.07;;
2257;SDS011;1136;51.574;7.706;2022-11-20T06:02:07;22.20;;;16.30;;
2257;SDS011;1136;51.574;7.706;2022-11-20T06:04:34;18.80;;;16.00;;
2257;SDS011;1136;51.574;7.706;2022-11-20T06:07:00;22.50;;;16.17;;
2257;SDS011;1136;51.574;7.706;2022-11-20T06:09:27;24.80;;;17.10;;
2257;SDS011;1136;51.574;7.706;2022-11-20T06:11:53;17.77;;;14.40;;
2257;SDS011;1136;51.574;7.706;2022-11-20T06:14:20;22.63;;;15.93;;
2257;SDS011;1136;51.574;7.706;2022-11-20T06:16:46;22.40;;;16.30;;
2257;SDS011;1136;51.574;7.706;2022-11-20T06:19:13;23.03;;;16.23;;
2257;SDS011;1136;51.574;7.706;2022-11-20T06:21:39;23.00;;;15.80;;
2257;SDS011;1136;51.574;7.706;2022-11-20T06:24:06;19.73;;;14.03;;
2257;SDS011;1136;51.574;7.706;2022-11-20T06:26:35;20.73;;;14.90;;
2257;SDS011;1136;51.574;7.706;2022-11-20T06:29:02;20.47;;;15.30;;
2257;SDS011;1136;51.574;7.706;2022-11-20T06:31:28;20.77;;;16.17;;
2257;SDS011;1136;51.574;7.706;2022-11-20T06:33:55;23.63;;;16.07;;
2257;SDS011;1136;51.574;7.706;2022-11-20T06:36:22;22.33;;;16.13;;
2257;SDS011;1136;51.574;7.706;2022-11-20T06:38:49;21.90;;;14.70;;
2257;SDS011;1136;51.574;7.706;2022-11-20T06:41:17;18.93;;;15.50;;
2257;SDS011;1136;51.574;7.706;2022-11-20T06:43:45;21.20;;;15.00;;
2257;SDS011;1136;51.574;7.706;2022-11-20T06:46:12;19.63;;;15.87;;
2257;SDS011;1136;51.574;7.706;2022-11-20T06:48:39;21.03;;;16.67;;
2257;SDS011;1136;51.574;7.706;2022-11-20T06:51:07;21.40;;;17.50;;
2257;SDS011;1136;51.574;7.706;2022-11-20T06:53:34;20.30;;;15.97;;
2257;SDS011;1136;51.574;7.706;2022-11-20T06:56:01;20.17;;;15.73;;
2257;SDS011;1136;51.574;7.706;2022-11-20T06:58:28;22.00;;;15.33;;
2257;SDS011;1136;51.574;7.706;2022-11-20T07:00:58;21.30;;;15.33;;
2257;SDS011;1136;51.574;7.706;2022-11-20T07:03:43;17.50;;;15.20;;
2257;SDS011;1136;51.574;7.706;2022-11-20T07:06:13;20.03;;;16.43;;
2257;SDS011;1136;51.574;7.706;2022-11-20T07:08:39;19.17;;;15.10;;
2257;SDS011;1136;51.574;7.706;2022-11-20T07:11:07;18.17;;;15.03;;
2257;SDS011;1136;51.574;7.706;2022-11-20T07:13:34;20.90;;;14.77;;
2257;SDS011;1136;51.574;7.706;2022-11-20T07:16:02;22.20;;;16.50;;
2257;SDS011;1136;51.574;7.706;2022-11-20T07:18:31;22.57;;;16.03;;
2257;SDS011;1136;51.574;7.706;2022-11-20T07:21:05;20.03;;;15.20;;
2257;SDS011;1136;51.574;7.706;2022-11-20T07:23:33;22.80;;;14.83;;
2257;SDS011;1136;51.574;7.706;2022-11-20T07:26:07;18.60;;;13.57;;
2257;SDS011;1136;51.574;7.706;2022-11-20T07:28:34;22.63;;;16.60;;
2257;SDS011;1136;51.574;7.706;2022-11-20T07:31:01;21.10;;;15.63;;
2257;SDS011;1136;51.574;7.706;2022-11-20T07:33:28;24.00;;;17.20;;
2257;SDS011;1136;51.574;7.706;2022-11-20T07:35:55;19.47;;;15.03;;
2257;SDS011;1136;51.574;7.706;2022-11-20T07:38:21;21.90;;;17.53;;
2257;SDS011;1136;51.574;7.706;2022-11-20T07:40:48;16.50;;;14.10;;
2257;SDS011;1136;51.574;7.706;2022-11-20T07:43:15;21.97;;;16.07;;
2257;SDS011;1136;51.574;7.706;2022-11-20T07:45:41;23.10;;;17.60;;
2257;SDS011;1136;51.574;7.706;2022-11-20T07:48:08;21.17;;;15.33;;
2257;SDS011;1136;51.574;7.706;2022-11-20T07:50:34;21.57;;;16.27;;
2257;SDS011;1136;51.574;7.706;2022-11-20T07:53:02;23.10;;;17.70;;
2257;SDS011;1136;51.574;7.706;2022-11-20T07:55:29;19.63;;;16.50;;
2257;SDS011;1136;51.574;7.706;2022-11-20T07:57:56;21.03;;;15.60;;
2257;SDS011;1136;51.574;7.706;2022-11-20T08:00:23;19.13;;;16.30;;
2257;SDS011;1136;51.574;7.706;2022-11-20T08:02:51;17.50;;;13.80;;
2257;SDS011;1136;51.574;7.706;2022-11-20T08:05:17;18.80;;;15.83;;
2257;SDS011;1136;51.574;7.706;2022-11-20T08:07:44;18.90;;;15.07;;
2257;SDS011;1136;51.574;7.706;2022-11-20T08:10:12;17.97;;;14.67;;
2257;SDS011;1136;51.574;7.706;2022-11-20T08:12:49;19.17;;;14.93;;
2257;SDS011;1136;51.574;7.706;2022-11-20T08:15:35;18.50;;;14.00;;
2257;SDS011;1136;51.574;7.706;2022-11-20T08:18:11;21.03;;;16.30;;
2257;SDS011;1136;51.574;7.706;2022-11-20T08:20:56;17.13;;;14.63;;
2257;SDS011;1136;51.574;7.706;2022-11-20T08:23:23;17.40;;;13.50;;
2257;SDS011;1136;51.574;7.706;2022-11-20T08:25:50;18.07;;;14.03;;
2257;SDS011;1136;51.574;7.706;2022-11-20T08:28:17;21.50;;;16.00;;
2257;SDS011;1136;51.574;7.706;2022-11-20T08:30:47;18.10;;;14.20;;
2257;SDS011;1136;51.574;7.706;2022-11-20T08:33:14;18.90;;;14.90;;
2257;SDS011;1136;51.574;7.706;2022-11-20T08:35:40;17.97;;;13.67;;
2257;SDS011;1136;51.574;7.706;2022-11-20T08:38:08;18.33;;;13.73;;
2257;SDS011;1136;51.574;7.706;2022-11-20T08:40:34;17.33;;;13.83;;
2257;SDS011;1136;51.574;7.706;2022-11-20T08:43:01;17.93;;;14.43;;
2257;SDS011;1136;51.574;7.706;2022-11-20T08:45:27;16.27;;;13.40;;
2257;SDS011;1136;51.574;7.706;2022-11-20T08:48:00;16.37;;;13.30;;
2257;SDS011;1136;51.574;7.706;2022-11-20T08:50:27;16.03;;;13.90;;
2257;SDS011;1136;51.574;7.706;2022-11-20T08:52:54;14.77;;;13.07;;
2257;SDS011;1136;51.574;7.706;2022-11-20T08:55:21;15.77;;;13.37;;
2257;SDS011;1136;51.574;7.706;2022-11-20T08:57:47;20.40;;;13.87;;
2257;SDS011;1136;51.574;7.706;2022-11-20T09:00:16;17.00;;;14.63;;
2257;SDS011;1136;51.574;7.706;2022-11-20T09:02:43;17.43;;;15.53;;
2257;SDS011;1136;51.574;7.706;2022-11-20T09:05:09;19.63;;;16.77;;
2257;SDS011;1136;51.574;7.706;2022-11-20T09:07:36;17.90;;;15.23;;
2257;SDS011;1136;51.574;7.706;2022-11-20T09:10:03;17.17;;;14.90;;
2257;SDS011;1136;51.574;7.706;2022-11-20T09:12:49;18.67;;;15.57;;
2257;SDS011;1136;51.574;7.706;2022-11-20T09:15:18;19.43;;;17.20;;
2257;SDS011;1136;51.574;7.706;2022-11-20T09:20:17;17.17;;;15.47;;
2257;SDS011;1136;51.574;7.706;2022-11-20T09:22:44;17.97;;;16.17;;
2257;SDS011;1136;51.574;7.706;2022-11-20T09:25:11;18.73;;;16.73;;
2257;SDS011;1136;51.574;7.706;2022-11-20T09:27:38;18.60;;;16.80;;
2257;SDS011;1136;51.574;7.706;2022-11-20T09:30:04;18.33;;;16.53;;
2257;SDS011;1136;51.574;7.706;2022-11-20T09:32:31;17.10;;;15.40;;
2257;SDS011;1136;51.574;7.706;2022-11-20T09:34:58;18.50;;;16.77;;
2257;SDS011;1136;51.574;7.706;2022-11-20T09:37:29;17.33;;;15.93;;
2257;SDS011;1136;51.574;7.706;2022-11-20T09:39:56;18.27;;;16.47;;
2257;SDS011;1136;51.574;7.706;2022-11-20T09:56:23;19.43;;;17.93;;
2257;SDS011;1136;51.574;7.706;2022-11-20T09:58:50;18.80;;;17.30;;
2257;SDS011;1136;51.574;7.706;2022-11-20T10:01:18;16.20;;;15.00;;
2257;SDS011;1136;51.574;7.706;2022-11-20T10:03:51;15.50;;;14.40;;
2257;SDS011;1136;51.574;7.706;2022-11-20T10:09:54;15.70;;;14.50;;
2257;SDS011;1136;51.574;7.706;2022-11-20T10:18:00;13.00;;;11.93;;
2257;SDS011;1136;51.574;7.706;2022-11-20T10:28:51;21.73;;;19.67;;
2257;SDS011;1136;51.574;7.706;2022-11-20T10:31:34;11.10;;;10.07;;
2257;SDS011;1136;51.574;7.706;2022-11-20T10:34:05;11.73;;;10.83;;
2257;SDS011;1136;51.574;7.706;2022-11-20T10:37:04;14.70;;;13.07;;
2257;SDS011;1136;51.574;7.706;2022-11-20T10:39:41;14.10;;;12.83;;
2257;SDS011;1136;51.574;7.706;2022-11-20T10:42:11;13.00;;;11.87;;
2257;SDS011;1136;51.574;7.706;2022-11-20T10:44:51;11.70;;;10.70;;
2257;SDS011;1136;51.574;7.706;2022-11-20T10:47:31;12.40;;;11.30;;
2257;SDS011;1136;51.574;7.706;2022-11-20T10:50:01;12.80;;;11.60;;
2257;SDS011;1136;51.574;7.706;2022-11-20T11:00:14;13.37;;;12.17;;
2257;SDS011;1136;51.574;7.706;2022-11-20T11:02:45;15.07;;;13.60;;
2257;SDS011;1136;51.574;7.706;2022-11-20T11:05:25;13.37;;;12.37;;
2257;SDS011;1136;51.574;7.706;2022-11-20T11:07:58;15.03;;;13.63;;
2257;SDS011;1136;51.574;7.706;2022-11-20T11:10:32;15.00;;;13.60;;
2257;SDS011;1136;51.574;7.706;2022-11-20T11:13:02;15.17;;;13.67;;
2257;SDS011;1136;51.574;7.706;2022-11-20T11:15:39;13.57;;;12.27;;
2257;SDS011;1136;51.574;7.706;2022-11-20T11:18:10;15.33;;;12.80;;
2257;SDS011;1136;51.574;7.706;2022-11-20T11:20:40;17.37;;;12.90;;
2257;SDS011;1136;51.574;7.706;2022-11-20T11:25:59;13.17;;;11.97;;
2257;SDS011;1136;51.574;7.706;2022-11-20T11:28:28;14.70;;;13.23;;
2257;SDS011;1136;51.574;7.706;2022-11-20T11:30:55;15.37;;;13.83;;
2257;SDS011;1136;51.574;7.706;2022-11-20T11:33:26;18.00;;;14.17;;
2257;SDS011;1136;51.574;7.706;2022-11-20T11:36:00;16.80;;;14.30;;
2257;SDS011;1136;51.574;7.706;2022-11-20T11:38:36;16.87;;;15.07;;
2257;SDS011;1136;51.574;7.706;2022-11-20T11:41:09;17.10;;;15.50;;
2257;SDS011;1136;51.574;7.706;2022-11-20T11:43:48;16.93;;;14.90;;
2257;SDS011;1136;51.574;7.706;2022-11-20T11:46:59;18.40;;;15.27;;
2257;SDS011;1136;51.574;7.706;2022-11-20T11:49:26;17.83;;;14.83;;
2257;SDS011;1136;51.574;7.706;2022-11-20T11:57:03;18.23;;;16.23;;
2257;SDS011;1136;51.574;7.706;2022-11-20T12:02:24;16.43;;;13.33;;
2257;SDS011;1136;51.574;7.706;2022-11-20T12:04:57;22.67;;;17.63;;
2257;SDS011;1136;51.574;7.706;2022-11-20T12:07:33;20.43;;;15.83;;
2257;SDS011;1136;51.574;7.706;2022-11-20T12:10:14;22.83;;;16.73;;
2257;SDS011;1136;51.574;7.706;2022-11-20T12:12:44;19.83;;;16.83;;
2257;SDS011;1136;51.574;7.706;2022-11-20T12:15:16;18.80;;;16.60;;
2257;SDS011;1136;51.574;7.706;2022-11-20T12:17:57;19.47;;;15.70;;
2257;SDS011;1136;51.574;7.706;2022-11-20T12:20:25;16.73;;;14.63;;
2257;SDS011;1136;51.574;7.706;2022-11-20T12:25:35;15.60;;;13.07;;
2257;SDS011;1136;51.574;7.706;2022-11-20T12:28:36;18.53;;;14.40;;
2257;SDS011;1136;51.574;7.706;2022-11-20T12:31:47;19.63;;;14.50;;
2257;SDS011;1136;51.574;7.706;2022-11-20T12:36:42;15.03;;;12.93;;
2257;SDS011;1136;51.574;7.706;2022-11-20T12:39:18;18.40;;;14.70;;
2257;SDS011;1136;51.574;7.706;2022-11-20T12:50:16;14.30;;;12.60;;
2257;SDS011;1136;51.574;7.706;2022-11-20T12:56:41;13.50;;;12.00;;
2257;SDS011;1136;51.574;7.706;2022-11-20T13:07:31;18.50;;;14.33;;
2257;SDS011;1136;51.574;7.706;2022-11-20T13:09:59;16.87;;;13.70;;
2257;SDS011;1136;51.574;7.706;2022-11-20T13:15:02;12.50;;;11.10;;
2257;SDS011;1136;51.574;7.706;2022-11-20T13:17:43;12.33;;;10.37;;
2257;SDS011;1136;51.574;7.706;2022-11-20T13:20:14;13.20;;;11.40;;
2257;SDS011;1136;51.574;7.706;2022-11-20T13:25:10;14.23;;;11.60;;
2257;SDS011;1136;51.574;7.706;2022-11-20T13:27:47;14.40;;;12.87;;
2257;SDS011;1136;51.574;7.706;2022-11-20T13:30:16;12.80;;;10.80;;
2257;SDS011;1136;51.574;7.706;2022-11-20T13:35:32;15.90;;;12.83;;
2257;SDS011;1136;51.574;7.706;2022-11-20T13:38:04;14.40;;;11.63;;
2257;SDS011;1136;51.574;7.706;2022-11-20T13:40:32;16.80;;;14.00;;
2257;SDS011;1136;51.574;7.706;2022-11-20T13:43:18;16.67;;;13.60;;
2257;SDS011;1136;51.574;7.706;2022-11-20T13:45:54;17.77;;;15.23;;
2257;SDS011;1136;51.574;7.706;2022-11-20T13:48:23;18.40;;;13.10;;
2257;SDS011;1136;51.574;7.706;2022-11-20T13:58:40;21.77;;;18.37;;
2257;SDS011;1136;51.574;7.706;2022-11-20T14:01:30;23.50;;;18.67;;
2257;SDS011;1136;51.574;7.706;2022-11-20T14:03:58;20.50;;;17.20;;
2257;SDS011;1136;51.574;7.706;2022-11-20T14:06:33;22.23;;;17.20;;
2257;SDS011;1136;51.574;7.706;2022-11-20T14:09:04;23.60;;;17.53;;
2257;SDS011;1136;51.574;7.706;2022-11-20T14:11:32;20.40;;;16.40;;
2257;SDS011;1136;51.574;7.706;2022-11-20T14:16:34;19.80;;;16.27;;
2257;SDS011;1136;51.574;7.706;2022-11-20T14:19:20;22.30;;;16.97;;
2257;SDS011;1136;51.574;7.706;2022-11-20T14:21:54;18.17;;;14.43;;
2257;SDS011;1136;51.574;7.706;2022-11-20T14:24:33;22.67;;;14.83;;
2257;SDS011;1136;51.574;7.706;2022-11-20T14:27:00;20.97;;;14.73;;
2257;SDS011;1136;51.574;7.706;2022-11-20T14:29:28;21.30;;;16.07;;
2257;SDS011;1136;51.574;7.706;2022-11-20T14:31:56;21.60;;;16.50;;
2257;SDS011;1136;51.574;7.706;2022-11-20T14:34:24;26.90;;;21.23;;
2257;SDS011;1136;51.574;7.706;2022-11-20T14:36:58;23.00;;;16.97;;
2257;SDS011;1136;51.574;7.706;2022-11-20T14:41:57;26.33;;;20.37;;
2257;SDS011;1136;51.574;7.706;2022-11-20T14:44:26;21.97;;;17.60;;
2257;SDS011;1136;51.574;7.706;2022-11-20T14:46:54;22.00;;;17.87;;
2257;SDS011;1136;51.574;7.706;2022-11-20T14:49:21;24.50;;;19.70;;
2257;SDS011;1136;51.574;7.706;2022-11-20T14:51:58;24.60;;;19.30;;
2257;SDS011;1136;51.574;7.706;2022-11-20T14:54:28;19.60;;;16.10;;
2257;SDS011;1136;51.574;7.706;2022-11-20T14:57:00;17.83;;;15.87;;
2257;SDS011;1136;51.574;7.706;2022-11-20T14:59:28;17.50;;;14.37;;
2257;SDS011;1136;51.574;7.706;2022-11-20T15:01:57;28.47;;;25.50;;
2257;SDS011;1136;51.574;7.706;2022-11-20T15:04:25;22.67;;;18.37;;
2257;SDS011;1136;51.574;7.706;2022-11-20T15:06:54;19.80;;;14.43;;
2257;SDS011;1136;51.574;7.706;2022-11-20T15:09:25;17.77;;;13.87;;
2257;SDS011;1136;51.574;7.706;2022-11-20T15:11:53;18.10;;;14.80;;
2257;SDS011;1136;51.574;7.706;2022-11-20T15:14:21;18.53;;;14.37;;
2257;SDS011;1136;51.574;7.706;2022-11-20T15:16:49;19.67;;;16.97;;
2257;SDS011;1136;51.574;7.706;2022-11-20T15:19:17;24.07;;;21.67;;
2257;SDS011;1136;51.574;7.706;2022-11-20T15:21:47;20.70;;;16.23;;
2257;SDS011;1136;51.574;7.706;2022-11-20T15:24:14;21.23;;;16.93;;
2257;SDS011;1136;51.574;7.706;2022-11-20T15:26:41;25.80;;;19.10;;
2257;SDS011;1136;51.574;7.706;2022-11-20T15:29:11;18.33;;;14.70;;
2257;SDS011;1136;51.574;7.706;2022-11-20T15:31:39;23.00;;;16.93;;
2257;SDS011;1136;51.574;7.706;2022-11-20T15:34:10;18.77;;;14.67;;
2257;SDS011;1136;51.574;7.706;2022-11-20T15:36:39;19.50;;;15.10;;
2257;SDS011;1136;51.574;7.706;2022-11-20T15:39:06;23.97;;;18.10;;
2257;SDS011;1136;51.574;7.706;2022-11-20T15:41:35;32.57;;;26.47;;
2257;SDS011;1136;51.574;7.706;2022-11-20T15:44:03;47.93;;;38.67;;
2257;SDS011;1136;51.574;7.706;2022-11-20T15:46:31;31.63;;;26.90;;
2257;SDS011;1136;51.574;7.706;2022-11-20T15:49:03;29.57;;;25.10;;
2257;SDS011;1136;51.574;7.706;2022-11-20T15:51:31;21.07;;;16.17;;
2257;SDS011;1136;51.574;7.706;2022-11-20T15:54:02;29.10;;;22.47;;
2257;SDS011;1136;51.574;7.706;2022-11-20T15:56:38;21.10;;;17.77;;
2257;SDS011;1136;51.574;7.706;2022-11-20T15:59:04;20.97;;;15.70;;
2257;SDS011;1136;51.574;7.706;2022-11-20T16:01:31;23.87;;;15.40;;
2257;SDS011;1136;51.574;7.706;2022-11-20T16:03:59;22.87;;;16.53;;
2257;SDS011;1136;51.574;7.706;2022-11-20T16:06:26;58.10;;;46.10;;
2257;SDS011;1136;51.574;7.706;2022-11-20T16:08:52;25.23;;;22.50;;
2257;SDS011;1136;51.574;7.706;2022-11-20T16:11:19;20.87;;;16.87;;
2257;SDS011;1136;51.574;7.706;2022-11-20T16:13:49;24.03;;;20.37;;
2257;SDS011;1136;51.574;7.706;2022-11-20T16:16:35;30.50;;;23.57;;
2257;SDS011;1136;51.574;7.706;2022-11-20T16:19:03;50.20;;;44.70;;
2257;SDS011;1136;51.574;7.706;2022-11-20T16:21:30;25.30;;;22.10;;
2257;SDS011;1136;51.574;7.706;2022-11-20T16:23:58;34.27;;;30.57;;
2257;SDS011;1136;51.574;7.706;2022-11-20T16:26:25;28.00;;;19.47;;
2257;SDS011;1136;51.574;7.706;2022-11-20T16:28:52;32.33;;;28.20;;
2257;SDS011;1136;51.574;7.706;2022-11-20T16:31:19;21.23;;;17.30;;
2257;SDS011;1136;51.574;7.706;2022-11-20T16:33:53;25.40;;;17.60;;
2257;SDS011;1136;51.574;7.706;2022-11-20T16:36:21;23.93;;;16.90;;
2257;SDS011;1136;51.574;7.706;2022-11-20T16:38:57;31.40;;;25.87;;
2257;SDS011;1136;51.574;7.706;2022-11-20T16:41:26;24.93;;;17.23;;
2257;SDS011;1136;51.574;7.706;2022-11-20T16:43:54;25.37;;;20.50;;
2257;SDS011;1136;51.574;7.706;2022-11-20T16:46:25;27.40;;;18.63;;
2257;SDS011;1136;51.574;7.706;2022-11-20T16:48:54;32.00;;;17.07;;
2257;SDS011;1136;51.574;7.706;2022-11-20T16:51:21;30.73;;;22.70;;
2257;SDS011;1136;51.574;7.706;2022-11-20T16:53:49;32.97;;;22.97;;
2257;SDS011;1136;51.574;7.706;2022-11-20T16:56:17;30.73;;;18.63;;